Time;durP1;ratioP1;P1;durP2;ratioP2;P2;SDS_P1;SDS_P2;PMS_P1;PMS_P2;Temp;Humidity;BMP_temperature;BMP_pressure;BME280_temperature;BME280_humidity;BME280_pressure;Samples;Min_cycle;Max_cycle;Signal;HPM_P1;HPM_P2
2022/01/10 00:01:07;;;;;;;64.90;29.50;;;;;;;-5.02;82.03;100065.69;87559;1284;88911;-58
2022/01/10 00:03:13;;;;;;;63.70;29.70;;;;;;;-5.07;81.88;100068.34;87571;1284;93935;-58
2022/01/10 00:05:19;;;;;;;57.90;28.00;;;;;;;-5.09;81.61;100074.92;87562;1284;81941;-59
2022/01/10 00:07:25;;;;;;;58.30;29.40;;;;;;;-5.10;81.88;100074.63;87577;1284;82651;-59
2022/01/10 00:09:34;;;;;;;62.50;31.60;;;;;;;-5.10;81.98;100074.29;87567;1284;98785;-60
2022/01/10 00:11:40;;;;;;;69.00;35.20;;;;;;;-5.07;82.37;100078.34;87532;1284;89038;-60
2022/01/10 00:13:50;;;;;;;75.90;37.90;;;;;;;-5.02;82.32;100080.94;87557;1284;93652;-60
2022/01/10 00:15:59;;;;;;;78.70;40.00;;;;;;;-4.93;82.68;100083.48;87471;1285;79728;-69
2022/01/10 00:18:06;;;;;;;109.30;45.20;;;;;;;-4.81;83.05;100076.21;87541;1284;82900;-70
2022/01/10 00:20:17;;;;;;;102.60;43.90;;;;;;;-4.70;82.99;100074.45;87488;1285;99341;-60
2022/01/10 00:22:25;;;;;;;106.80;46.30;;;;;;;-4.62;83.05;100071.95;87597;1284;86693;-60
2022/01/10 00:24:31;;;;;;;115.10;46.90;;;;;;;-4.53;83.20;100071.70;87501;1286;94878;-67
2022/01/10 00:26:40;;;;;;;101.00;45.60;;;;;;;-4.42;83.41;100073.48;87543;1284;79949;-67
2022/01/10 00:28:47;;;;;;;97.90;42.20;;;;;;;-4.31;83.37;100085.54;87550;1284;81298;-69
2022/01/10 00:30:53;;;;;;;105.00;44.80;;;;;;;-4.29;83.39;100083.98;87557;1284;98369;-58
2022/01/10 00:32:59;;;;;;;106.30;45.50;;;;;;;-4.23;83.33;100091.30;87569;1284;88812;-58
2022/01/10 00:35:11;;;;;;;94.50;42.80;;;;;;;-4.20;83.28;100091.27;87567;1284;95255;-69
2022/01/10 00:37:20;;;;;;;116.50;47.30;;;;;;;-4.19;83.64;100093.64;87577;1284;82267;-69
2022/01/10 00:39:29;;;;;;;111.10;45.70;;;;;;;-4.16;83.65;100096.14;87572;1284;80759;-70
2022/01/10 00:41:36;;;;;;;109.00;45.10;;;;;;;-4.16;83.80;100104.53;87558;1284;98196;-69
2022/01/10 00:43:46;;;;;;;92.20;41.10;;;;;;;-4.11;83.76;100108.60;87411;1287;89176;-69
2022/01/10 00:45:52;;;;;;;113.90;46.50;;;;;;;-4.09;83.75;100113.37;87577;1284;94636;-70
2022/01/10 00:48:00;;;;;;;97.00;42.10;;;;;;;-4.04;83.97;100117.98;87567;1284;78499;-67
2022/01/10 00:50:07;;;;;;;86.10;39.90;;;;;;;-3.99;84.01;100117.08;87568;1284;83248;-68
2022/01/10 00:52:15;;;;;;;76.90;38.60;;;;;;;-3.96;84.13;100120.20;87557;1284;99964;-69
2022/01/10 00:54:21;;;;;;;88.40;37.50;;;;;;;-3.91;84.18;100124.27;87566;1284;87599;-59
2022/01/10 00:56:31;;;;;;;87.00;37.00;;;;;;;-3.97;84.22;100123.66;87539;1284;92697;-59
2022/01/10 00:58:37;;;;;;;78.80;34.40;;;;;;;-3.95;84.02;100127.00;87593;1284;79396;-59
2022/01/10 01:00:47;;;;;;;73.50;31.50;;;;;;;-4.04;84.31;100127.64;87583;1284;83146;-59
2022/01/10 01:02:53;;;;;;;74.10;35.00;;;;;;;-4.06;84.17;100128.50;87576;1284;99630;-57
2022/01/10 01:05:04;;;;;;;76.80;32.80;;;;;;;-4.09;84.47;100133.05;87535;1284;89268;-68
2022/01/10 01:07:12;;;;;;;78.70;34.40;;;;;;;-4.21;84.52;100135.48;87549;1284;95395;-71
2022/01/10 01:09:23;;;;;;;71.10;32.50;;;;;;;-4.20;84.25;100142.62;87550;1284;78565;-70
2022/01/10 01:11:59;;;;;;;75.40;32.90;;;;;;;-4.14;84.48;100151.89;87570;1284;80605;-72
2022/01/10 01:14:08;;;;;;;73.20;32.40;;;;;;;-4.06;84.52;100152.55;87383;1287;100318;-58
2022/01/10 01:16:29;;;;;;;73.20;33.10;;;;;;;-4.01;84.47;100156.13;87537;1284;87864;-59
2022/01/10 01:25:54;;;;;;;73.20;30.20;;;;;;;-3.72;84.45;100181.17;87524;1284;98665;-60
2022/01/10 01:28:03;;;;;;;67.30;30.70;;;;;;;-3.68;84.39;100184.79;87553;1284;87981;-59
2022/01/10 01:30:12;;;;;;;71.80;31.10;;;;;;;-3.68;85.00;100185.64;87515;1284;94376;-69
2022/01/10 01:32:18;;;;;;;80.10;33.00;;;;;;;-3.72;84.73;100183.96;87555;1284;79339;-67
2022/01/10 01:34:25;;;;;;;66.10;29.80;;;;;;;-3.73;84.71;100183.00;87523;1284;82110;-69
2022/01/10 01:36:33;;;;;;;68.40;29.10;;;;;;;-3.79;84.77;100191.34;87466;1286;100338;-67
2022/01/10 01:38:42;;;;;;;77.30;31.50;;;;;;;-3.89;85.05;100191.67;87539;1284;89069;-69
2022/01/10 01:40:54;;;;;;;73.30;33.10;;;;;;;-3.89;85.10;100193.98;87540;1284;94730;-60
2022/01/10 01:43:00;;;;;;;67.20;28.00;;;;;;;-3.84;84.91;100191.16;87517;1284;79173;-60
2022/01/10 01:45:16;;;;;;;79.80;33.40;;;;;;;-3.76;84.82;100189.91;87561;1284;83180;-70
2022/01/10 01:47:25;;;;;;;73.10;32.40;;;;;;;-3.68;85.01;100192.71;87523;1284;98287;-70
2022/01/10 01:49:34;;;;;;;82.00;35.90;;;;;;;-3.59;85.20;100184.88;87542;1284;89315;-70
2022/01/10 01:51:40;;;;;;;74.50;32.20;;;;;;;-3.50;84.74;100188.64;87519;1283;93963;-71
2022/01/10 01:53:50;;;;;;;66.80;31.70;;;;;;;-3.47;85.09;100191.92;87534;1284;81946;-71
2022/01/10 01:55:56;;;;;;;63.70;29.00;;;;;;;-3.47;85.02;100191.42;87529;1284;82518;-71
2022/01/10 01:58:03;;;;;;;60.10;29.40;;;;;;;-3.46;85.08;100188.73;87521;1284;100173;-68
2022/01/10 02:00:11;;;;;;;60.60;29.90;;;;;;;-3.38;84.98;100194.52;87558;1283;86825;-68
2022/01/10 02:02:17;;;;;;;68.60;30.00;;;;;;;-3.38;85.15;100199.23;87530;1284;93560;-70
2022/01/10 02:04:23;;;;;;;76.80;32.70;;;;;;;-3.37;85.10;100201.27;87513;1284;78092;-59
2022/01/10 02:06:32;;;;;;;92.90;36.90;;;;;;;-3.34;84.81;100203.38;87562;1284;80640;-59
2022/01/10 02:08:42;;;;;;;83.20;34.20;;;;;;;-3.29;84.96;100206.19;87532;1284;100504;-58
2022/01/10 02:10:48;;;;;;;75.20;32.10;;;;;;;-3.28;84.85;100211.70;87538;1284;89498;-59
2022/01/10 02:12:57;;;;;;;71.10;30.80;;;;;;;-3.29;84.85;100214.27;87528;1284;93919;-59
2022/01/10 02:15:04;;;;;;;64.40;28.00;;;;;;;-3.23;84.76;100214.92;87566;1284;78821;-70
2022/01/10 02:17:16;;;;;;;77.50;31.80;;;;;;;-3.30;85.37;100220.12;87554;1284;83303;-70
2022/01/10 02:19:22;;;;;;;72.50;29.80;;;;;;;-3.30;85.19;100219.26;87566;1284;100384;-70
2022/01/10 02:21:28;;;;;;;71.90;32.10;;;;;;;-3.28;85.43;100226.86;87537;1284;87957;-69
2022/01/10 02:23:34;;;;;;;61.70;29.30;;;;;;;-3.22;85.16;100223.83;87497;1284;94453;-70
2022/01/10 02:25:41;;;;;;;59.30;28.70;;;;;;;-3.16;85.29;100227.58;87542;1284;77118;-69
2022/01/10 02:27:48;;;;;;;62.90;27.60;;;;;;;-3.12;85.35;100231.02;87570;1284;82010;-69
2022/01/10 02:29:54;;;;;;;69.40;29.30;;;;;;;-3.09;85.47;100234.51;87557;1284;98389;-66
2022/01/10 02:32:03;;;;;;;68.40;29.70;;;;;;;-3.12;85.87;100237.19;87446;1285;88600;-59
2022/01/10 02:34:10;;;;;;;70.50;31.50;;;;;;;-3.15;85.53;100237.23;87529;1284;93323;-69
2022/01/10 02:36:24;;;;;;;68.30;30.00;;;;;;;-3.15;85.29;100239.84;87579;1284;81459;-70
2022/01/10 02:38:32;;;;;;;;;;;;;;;-3.16;85.30;100239.73;87554;1284;82609;-69
2022/01/10 02:40:41;;;;;;;74.40;32.30;;;;;;;-3.12;85.45;100242.63;87540;1284;98594;-59
2022/01/10 02:42:47;;;;;;;75.30;32.90;;;;;;;-3.09;85.51;100245.27;87538;1284;88293;-59
2022/01/10 02:44:53;;;;;;;68.50;30.70;;;;;;;-3.05;85.42;100251.64;87579;1284;91696;-59
2022/01/10 02:47:03;;;;;;;67.50;30.50;;;;;;;-3.01;85.68;100254.87;87587;1284;80116;-70
2022/01/10 02:49:14;;;;;;;64.80;29.80;;;;;;;-2.99;85.52;100255.48;87554;1284;82128;-68
2022/01/10 02:51:21;;;;;;;61.30;26.60;;;;;;;-2.91;85.52;100260.36;87562;1284;98738;-70
2022/01/10 02:53:30;;;;;;;65.90;28.20;;;;;;;-2.85;85.68;100265.27;87538;1284;88389;-69
2022/01/10 02:55:36;;;;;;;63.30;30.00;;;;;;;-2.78;85.62;100266.17;87553;1284;92150;-58
2022/01/10 02:57:43;;;;;;;57.30;28.20;;;;;;;-2.73;85.64;100265.05;87574;1284;79045;-58
2022/01/10 02:59:50;;;;;;;66.40;32.50;;;;;;;-2.72;85.59;100270.84;87566;1284;80742;-59
2022/01/10 03:01:56;;;;;;;63.20;31.40;;;;;;;-2.69;85.72;100272.17;87544;1284;99987;-59
2022/01/10 03:04:02;;;;;;;58.90;27.40;;;;;;;-2.72;85.53;100274.67;87459;1286;89405;-67
2022/01/10 03:06:09;;;;;;;64.20;29.30;;;;;;;-2.77;85.71;100282.11;87516;1284;94714;-69
2022/01/10 03:08:14;;;;;;;76.10;33.60;;;;;;;-2.80;85.50;100288.46;87559;1284;81150;-69
2022/01/10 03:10:21;;;;;;;59.10;28.10;;;;;;;-2.78;85.53;100293.27;87578;1284;81583;-58
2022/01/10 03:12:31;;;;;;;64.80;29.40;;;;;;;-2.82;85.41;100296.16;87567;1284;99276;-60
2022/01/10 03:14:37;;;;;;;77.70;35.20;;;;;;;-2.76;85.79;100294.40;87459;1286;86135;-68
2022/01/10 03:16:44;;;;;;;64.60;31.80;;;;;;;-2.70;85.45;100298.88;87557;1284;94226;-69
2022/01/10 03:18:50;;;;;;;52.20;26.80;;;;;;;-2.63;85.66;100304.91;87547;1284;80564;-69
2022/01/10 03:20:56;;;;;;;46.90;24.30;;;;;;;-2.55;85.54;100312.10;87560;1284;82894;-69
2022/01/10 03:23:02;;;;;;;55.10;27.80;;;;;;;-2.56;85.71;100319.88;87592;1284;98336;-69
2022/01/10 03:25:10;;;;;;;54.30;27.00;;;;;;;-2.52;85.65;100326.98;87591;1284;89127;-59
2022/01/10 03:27:16;;;;;;;45.70;24.80;;;;;;;-2.51;85.83;100328.38;87542;1284;95873;-60
2022/01/10 03:29:22;;;;;;;46.60;24.40;;;;;;;-2.50;85.86;100328.96;87570;1284;79123;-69
2022/01/10 03:31:28;;;;;;;51.20;24.20;;;;;;;-2.49;85.71;100335.77;87566;1284;82780;-69
2022/01/10 03:33:34;;;;;;;50.50;23.70;;;;;;;-2.47;85.97;100337.89;87567;1284;98883;-71
2022/01/10 03:35:40;;;;;;;41.30;20.10;;;;;;;-2.52;85.68;100340.39;87562;1284;88275;-68
2022/01/10 03:37:49;;;;;;;44.70;22.00;;;;;;;-2.58;85.97;100341.23;87467;1286;94990;-69
2022/01/10 03:39:55;;;;;;;50.60;24.50;;;;;;;-2.58;85.69;100343.68;87556;1284;79861;-70
2022/01/10 03:42:05;;;;;;;42.00;22.50;;;;;;;-2.53;85.73;100349.80;87590;1284;80441;-67
2022/01/10 03:44:11;;;;;;;46.20;23.00;;;;;;;-2.48;85.72;100357.59;87566;1284;99276;-61
2022/01/10 03:46:17;;;;;;;41.70;22.60;;;;;;;-2.45;85.58;100361.04;87373;1287;86718;-58
2022/01/10 03:48:23;;;;;;;40.70;21.40;;;;;;;-2.40;85.69;100364.59;87405;1287;94174;-58
2022/01/10 03:50:29;;;;;;;44.90;22.60;;;;;;;-2.37;85.92;100361.06;87445;1285;80044;-71
2022/01/10 03:52:35;;;;;;;40.30;20.80;;;;;;;-2.32;85.69;100363.89;87552;1284;82378;-68
2022/01/10 03:54:41;;;;;;;40.30;21.10;;;;;;;-2.29;85.85;100362.78;87562;1284;98722;-68
2022/01/10 03:56:48;;;;;;;41.00;22.20;;;;;;;-2.24;85.77;100368.19;87569;1284;89661;-68
2022/01/10 03:58:58;;;;;;;41.40;21.80;;;;;;;-2.25;85.91;100371.25;87561;1284;94594;-69
2022/01/10 04:01:05;;;;;;;43.50;22.40;;;;;;;-2.30;85.97;100376.94;87571;1284;79940;-71
2022/01/10 04:03:13;;;;;;;42.00;22.40;;;;;;;-2.31;85.74;100377.19;87325;1284;296720;-70
2022/01/10 04:05:19;;;;;;;46.10;24.20;;;;;;;-2.32;85.53;100379.04;87552;1284;100594;-59
2022/01/10 04:07:25;;;;;;;43.60;22.70;;;;;;;-2.35;85.64;100381.51;87576;1284;87330;-61
2022/01/10 04:09:34;;;;;;;46.70;25.60;;;;;;;-2.39;85.71;100382.86;87554;1284;94084;-59
2022/01/10 04:11:42;;;;;;;45.40;22.70;;;;;;;-2.34;85.57;100383.58;87554;1284;81041;-70
2022/01/10 04:13:48;;;;;;;34.80;19.40;;;;;;;-2.32;85.65;100386.09;87593;1284;81284;-73
2022/01/10 04:15:55;;;;;;;38.90;20.80;;;;;;;-2.25;85.72;100391.75;87581;1284;98829;-61
2022/01/10 04:18:02;;;;;;;35.60;19.70;;;;;;;-2.18;85.59;100396.04;87585;1284;89028;-59
2022/01/10 04:20:11;;;;;;;37.20;21.80;;;;;;;-2.15;85.64;100398.10;87588;1284;94326;-59
2022/01/10 04:22:18;;;;;;;34.40;18.90;;;;;;;-2.13;85.41;100397.76;87592;1284;77310;-59
2022/01/10 04:24:26;;;;;;;35.80;20.40;;;;;;;-2.14;85.36;100402.97;87559;1284;81317;-71
2022/01/10 04:26:32;;;;;;;32.50;18.90;;;;;;;-2.21;85.62;100403.42;87585;1284;100106;-70
2022/01/10 04:28:41;;;;;;;33.70;19.60;;;;;;;-2.22;85.41;100402.08;87561;1284;87733;-70
2022/01/10 04:30:48;;;;;;;37.50;20.10;;;;;;;-2.22;85.36;100403.36;87566;1284;95272;-70
2022/01/10 04:32:54;;;;;;;42.70;22.00;;;;;;;-2.23;85.12;100405.88;87601;1284;79384;-69
2022/01/10 04:35:00;;;;;;;38.40;19.80;;;;;;;-2.26;85.34;100409.10;87470;1286;83081;-58
2022/01/10 04:37:07;;;;;;;33.90;18.20;;;;;;;-2.27;85.09;100409.02;87552;1284;99311;-60
2022/01/10 04:39:14;;;;;;;38.20;19.80;;;;;;;-2.27;85.21;100408.80;87571;1284;88853;-59
2022/01/10 04:41:23;;;;;;;35.70;19.90;;;;;;;-2.18;85.42;100411.69;87590;1284;95009;-59
2022/01/10 04:43:30;;;;;;;34.80;19.20;;;;;;;-2.18;85.05;100414.52;87573;1284;79769;-59
2022/01/10 04:45:37;;;;;;;32.50;19.30;;;;;;;-2.12;85.09;100425.69;87599;1284;82296;-69
2022/01/10 04:47:46;;;;;;;44.10;23.70;;;;;;;-2.06;85.26;100432.02;87565;1284;97241;-70
2022/01/10 04:50:10;;;;;;;45.40;24.10;;;;;;;-2.07;85.30;100432.95;87579;1284;88635;-59
2022/01/10 04:52:16;;;;;;;47.10;22.40;;;;;;;-2.11;84.96;100442.38;87567;1284;95346;-59
2022/01/10 04:54:23;;;;;;;59.60;27.90;;;;;;;-2.12;85.01;100445.27;87579;1284;79044;-60
2022/01/10 04:56:30;;;;;;;68.60;30.50;;;;;;;-2.17;84.99;100451.13;87473;1286;83291;-59
2022/01/10 04:58:37;;;;;;;61.50;26.50;;;;;;;-2.22;84.99;100450.98;87448;1285;97512;-59
2022/01/10 05:00:46;;;;;;;62.50;26.80;;;;;;;-2.22;85.12;100452.40;87573;1284;86993;-59
2022/01/10 05:02:53;;;;;;;52.40;23.90;;;;;;;-2.22;84.97;100456.83;87556;1284;95017;-59
2022/01/10 05:05:03;;;;;;;65.90;27.80;;;;;;;-2.22;84.94;100463.11;87579;1284;79025;-57
2022/01/10 05:07:09;;;;;;;62.00;25.40;;;;;;;-2.21;85.05;100462.92;87599;1284;82133;-59
2022/01/10 05:09:15;;;;;;;45.70;22.40;;;;;;;-2.17;84.99;100464.38;87568;1284;96638;-58
2022/01/10 05:11:21;;;;;;;41.80;20.60;;;;;;;-2.12;85.28;100466.45;87592;1284;88527;-60
2022/01/10 05:13:30;;;;;;;49.90;22.20;;;;;;;-2.14;85.25;100468.21;87598;1284;94615;-58
2022/01/10 05:15:37;;;;;;;52.90;24.00;;;;;;;-2.10;85.13;100472.33;87575;1284;80144;-60
2022/01/10 05:17:46;;;;;;;43.40;21.40;;;;;;;-2.03;85.01;100480.11;87455;1285;82766;-58
2022/01/10 05:19:53;;;;;;;37.30;20.10;;;;;;;-1.99;84.96;100486.18;87569;1284;99004;-58
2022/01/10 05:22:02;;;;;;;36.10;19.90;;;;;;;-2.03;85.13;100490.15;87416;1286;88900;-60
2022/01/10 05:24:11;;;;;;;43.70;21.70;;;;;;;-2.06;84.93;100491.80;87585;1284;95817;-66
2022/01/10 05:26:20;;;;;;;45.30;22.60;;;;;;;-2.06;84.93;100498.36;87571;1284;77484;-58
2022/01/10 05:28:26;;;;;;;42.60;21.10;;;;;;;-2.13;85.23;100507.31;87582;1284;82785;-61
2022/01/10 05:30:32;;;;;;;44.60;20.60;;;;;;;-2.15;85.10;100508.84;87556;1284;100003;-61
2022/01/10 05:32:41;;;;;;;49.70;22.80;;;;;;;-2.17;85.23;100509.30;87465;1285;88115;-60
2022/01/10 05:34:50;;;;;;;51.50;23.40;;;;;;;-2.18;85.25;100520.15;87354;1287;95103;-59
2022/01/10 05:37:00;;;;;;;74.30;28.80;;;;;;;-2.20;85.14;100521.77;87461;1285;79867;-59
2022/01/10 05:39:09;;;;;;;59.10;25.10;;;;;;;-2.18;85.21;100525.96;87564;1284;80527;-59
2022/01/10 05:41:16;;;;;;;40.20;20.20;;;;;;;-2.13;85.37;100529.17;87574;1284;98195;-59
2022/01/10 05:43:26;;;;;;;36.60;20.60;;;;;;;-2.04;85.27;100531.55;87613;1284;87819;-59
2022/01/10 05:45:35;;;;;;;41.70;21.10;;;;;;;-1.96;85.33;100532.01;87593;1284;95444;-59
2022/01/10 05:47:46;;;;;;;40.30;19.70;;;;;;;-1.90;85.18;100530.87;87419;1287;78104;-59
2022/01/10 05:50:00;;;;;;;41.60;21.30;;;;;;;-1.92;85.26;100534.36;87467;1286;82009;-59
2022/01/10 05:52:06;;;;;;;;;;;;;;;-1.89;85.15;100532.77;87483;1284;100329;-60
2022/01/10 05:54:15;;;;;;;46.30;22.40;;;;;;;-1.94;85.13;100526.77;87478;1285;88771;-69
2022/01/10 05:56:24;;;;;;;72.80;29.80;;;;;;;-1.97;85.26;100532.80;87580;1284;93523;-69
2022/01/10 05:58:30;;;;;;;61.30;28.00;;;;;;;-2.01;85.22;100537.83;87560;1284;77712;-71
2022/01/10 06:00:37;;;;;;;62.90;29.00;;;;;;;-2.01;84.99;100540.50;87580;1284;80595;-61
2022/01/10 06:02:43;;;;;;;80.00;35.50;;;;;;;-2.02;85.01;100548.48;87600;1284;99791;-58
2022/01/10 06:04:50;;;;;;;65.40;29.50;;;;;;;-2.01;85.11;100548.96;87579;1284;89564;-58
2022/01/10 06:06:56;;;;;;;53.70;25.80;;;;;;;-2.05;85.16;100554.34;87570;1284;94860;-58
2022/01/10 06:09:02;;;;;;;56.80;27.00;;;;;;;-2.03;85.19;100562.33;87570;1284;78698;-68
2022/01/10 06:11:11;;;;;;;61.90;27.00;;;;;;;-2.04;85.28;100568.56;87556;1284;80424;-66
2022/01/10 06:13:30;;;;;;;58.60;26.60;;;;;;;-2.01;85.28;100569.08;87569;1284;97898;-69
2022/01/10 06:15:38;;;;;;;53.90;24.30;;;;;;;-1.96;85.40;100563.59;87579;1284;86004;-58
2022/01/10 06:17:44;;;;;;;52.30;25.30;;;;;;;-1.90;85.41;100571.66;87559;1284;92913;-60
2022/01/10 06:19:51;;;;;;;55.20;27.20;;;;;;;-1.82;85.18;100575.83;87588;1284;78018;-59
2022/01/10 06:21:57;;;;;;;54.30;25.90;;;;;;;-1.75;85.34;100578.55;87573;1284;82780;-59
2022/01/10 06:24:03;;;;;;;56.00;25.50;;;;;;;-1.72;85.27;100588.06;87561;1284;99487;-59
2022/01/10 06:26:10;;;;;;;53.30;26.90;;;;;;;-1.73;85.22;100592.06;87598;1284;88017;-59
2022/01/10 06:28:20;;;;;;;60.40;29.50;;;;;;;-1.73;84.98;100595.94;87594;1284;94858;-63
2022/01/10 06:30:27;;;;;;;65.60;29.10;;;;;;;-1.75;85.18;100605.08;87564;1284;80302;-60
2022/01/10 06:32:33;;;;;;;61.80;29.20;;;;;;;-1.77;84.86;100610.46;87593;1284;81921;-60
2022/01/10 06:34:41;;;;;;;57.60;28.50;;;;;;;-1.81;84.73;100622.22;87313;1287;98310;-68
2022/01/10 06:36:51;;;;;;;63.80;31.10;;;;;;;-1.85;84.84;100622.29;87405;1285;88427;-68
2022/01/10 06:38:57;;;;;;;63.50;30.30;;;;;;;-1.84;84.98;100629.65;87581;1284;93673;-62
2022/01/10 06:41:03;;;;;;;61.60;30.90;;;;;;;-1.86;84.80;100633.73;87531;1284;81079;-59
2022/01/10 06:43:09;;;;;;;68.80;31.00;;;;;;;-1.84;85.06;100639.02;87626;1284;81974;-59
2022/01/10 06:45:19;;;;;;;63.00;29.60;;;;;;;-1.80;85.16;100643.16;87586;1284;98584;-60
2022/01/10 06:47:28;;;;;;;64.70;30.50;;;;;;;-1.74;84.84;100641.90;87573;1284;87648;-59
2022/01/10 06:49:34;;;;;;;63.90;30.60;;;;;;;-1.68;84.91;100646.20;87560;1284;94683;-58
2022/01/10 06:51:41;;;;;;;64.00;30.30;;;;;;;-1.66;84.93;100654.40;87562;1284;77306;-59
2022/01/10 06:53:47;;;;;;;69.90;31.90;;;;;;;-1.66;85.04;100656.33;87622;1284;81671;-58
2022/01/10 06:55:59;;;;;;;68.20;32.20;;;;;;;-1.67;84.88;100661.70;87634;1284;100738;-67
2022/01/10 06:58:09;;;;;;;68.20;32.00;;;;;;;-1.71;85.04;100667.11;87572;1284;87046;-67
2022/01/10 07:00:17;;;;;;;66.50;32.60;;;;;;;-1.73;84.97;100671.86;87577;1284;93768;-66
2022/01/10 07:02:26;;;;;;;69.30;31.20;;;;;;;-1.75;84.87;100670.88;87348;1287;79668;-67
2022/01/10 07:04:32;;;;;;;70.90;30.80;;;;;;;-1.79;85.06;100666.20;87581;1284;82628;-60
2022/01/10 07:06:41;;;;;;;70.80;31.60;;;;;;;-1.78;84.93;100679.21;87583;1284;97950;-59
2022/01/10 07:08:47;;;;;;;63.30;29.90;;;;;;;-1.76;84.92;100690.20;87590;1284;86940;-60
2022/01/10 07:10:53;;;;;;;61.30;29.40;;;;;;;-1.75;84.93;100688.90;87580;1284;95444;-60
2022/01/10 07:12:59;;;;;;;66.30;30.60;;;;;;;-1.74;85.09;100691.66;87590;1284;78686;-60
2022/01/10 07:15:06;;;;;;;67.90;30.20;;;;;;;-1.67;85.12;100695.91;87593;1284;81488;-70
2022/01/10 07:17:12;;;;;;;60.60;29.80;;;;;;;-1.62;85.00;100699.30;87344;1287;100511;-68
2022/01/10 07:19:18;;;;;;;67.40;32.50;;;;;;;-1.59;85.14;100704.05;87441;1285;89729;-59
2022/01/10 07:21:28;;;;;;;58.80;29.90;;;;;;;-1.55;85.20;100702.17;87584;1284;95901;-57
2022/01/10 07:23:34;;;;;;;67.30;30.80;;;;;;;-1.61;85.10;100706.84;87602;1284;78106;-58
2022/01/10 07:25:40;;;;;;;69.90;33.70;;;;;;;-1.59;85.15;100708.80;87601;1284;83479;-59
2022/01/10 07:27:49;;;;;;;64.50;30.80;;;;;;;-1.60;85.00;100711.17;87582;1284;96645;-58
2022/01/10 07:29:55;;;;;;;68.90;33.70;;;;;;;-1.65;85.18;100715.59;87574;1284;89215;-59
2022/01/10 07:32:06;;;;;;;68.50;31.40;;;;;;;-1.66;84.90;100720.91;87565;1284;95538;-59
2022/01/10 07:34:15;;;;;;;67.10;33.00;;;;;;;-1.64;84.83;100727.34;87453;1285;79274;-59
2022/01/10 07:36:21;;;;;;;65.90;32.40;;;;;;;-1.60;84.80;100731.27;87596;1284;81585;-60
2022/01/10 07:38:35;;;;;;;63.00;31.60;;;;;;;-1.57;85.05;100734.11;87334;1287;98817;-59
2022/01/10 07:40:41;;;;;;;65.70;30.40;;;;;;;-1.62;85.24;100739.90;87597;1284;89201;-66
2022/01/10 07:42:51;;;;;;;65.20;31.10;;;;;;;-1.56;84.80;100746.94;87605;1284;95027;-68
2022/01/10 07:45:00;;;;;;;60.50;28.80;;;;;;;-1.53;85.22;100742.63;87563;1284;80152;-58
2022/01/10 07:47:10;;;;;;;62.80;30.30;;;;;;;-1.50;85.09;100750.39;87620;1284;80864;-59
2022/01/10 07:49:20;;;;;;;62.40;30.80;;;;;;;-1.41;85.15;100755.41;87340;1287;98722;-67
2022/01/10 07:51:30;;;;;;;67.90;31.70;;;;;;;-1.36;84.98;100754.90;87583;1284;87746;-66
2022/01/10 07:53:41;;;;;;;62.70;30.80;;;;;;;-1.32;85.07;100759.42;87576;1284;94658;-67
2022/01/10 07:55:48;;;;;;;60.30;31.90;;;;;;;-1.37;85.03;100765.18;87595;1284;77695;-59
2022/01/10 07:57:54;;;;;;;63.20;33.10;;;;;;;-1.37;84.95;100772.98;87576;1284;83350;-59
2022/01/10 08:00:01;;;;;;;65.30;32.90;;;;;;;-1.38;84.82;100774.14;87579;1284;99542;-59
2022/01/10 08:02:08;;;;;;;61.00;31.80;;;;;;;-1.41;84.84;100777.14;87585;1284;88255;-58
2022/01/10 08:04:15;;;;;;;62.70;30.80;;;;;;;-1.44;84.90;100780.18;87607;1284;93860;-67
2022/01/10 08:06:28;;;;;;;59.30;31.40;;;;;;;-1.46;84.67;100783.48;87384;1286;81636;-67
2022/01/10 08:08:35;;;;;;;56.80;29.50;;;;;;;-1.48;84.64;100789.29;87581;1284;82708;-67
2022/01/10 08:10:43;;;;;;;57.40;28.30;;;;;;;-1.47;84.82;100794.14;87465;1285;99795;-59
2022/01/10 08:12:54;;;;;;;58.90;29.40;;;;;;;-1.40;84.84;100799.88;87628;1284;86211;-59
2022/01/10 08:15:05;;;;;;;56.60;29.30;;;;;;;-1.35;84.83;100804.40;87579;1284;92859;-59
2022/01/10 08:17:14;;;;;;;52.40;28.90;;;;;;;-1.29;84.78;100811.29;87596;1284;78263;-60
2022/01/10 08:19:20;;;;;;;54.00;27.40;;;;;;;-1.26;84.88;100817.96;87575;1284;81397;-59
2022/01/10 08:21:30;;;;;;;51.00;26.60;;;;;;;-1.24;84.63;100822.77;87597;1284;98414;-67
2022/01/10 08:23:39;;;;;;;49.20;27.40;;;;;;;-1.33;84.69;100821.11;87603;1284;88063;-68
2022/01/10 08:25:45;;;;;;;51.60;29.10;;;;;;;-1.36;84.76;100826.42;87577;1284;95452;-59
2022/01/10 08:27:52;;;;;;;52.30;28.20;;;;;;;-1.45;84.56;100827.02;87598;1284;77556;-67
2022/01/10 08:30:01;;;;;;;57.40;30.20;;;;;;;-1.47;84.57;100827.89;87577;1284;81828;-59
2022/01/10 08:32:12;;;;;;;57.10;29.00;;;;;;;-1.48;84.68;100826.89;87610;1284;100394;-58
2022/01/10 08:34:19;;;;;;;60.10;28.10;;;;;;;-1.53;84.82;100835.73;87578;1284;89445;-61
2022/01/10 08:36:27;;;;;;;56.30;28.00;;;;;;;-1.55;84.94;100839.36;87597;1284;95914;-59
2022/01/10 08:38:34;;;;;;;52.80;28.80;;;;;;;-1.52;84.78;100839.36;87574;1284;79454;-59
2022/01/10 08:40:40;;;;;;;54.10;27.10;;;;;;;-1.45;84.77;100844.88;87568;1284;79319;-65
2022/01/10 08:42:50;;;;;;;54.70;27.30;;;;;;;-1.44;84.86;100845.68;87594;1284;98757;-67
2022/01/10 08:44:57;;;;;;;57.90;29.40;;;;;;;-1.34;84.58;100845.89;87620;1284;89523;-67
2022/01/10 08:47:04;;;;;;;53.40;26.20;;;;;;;-1.30;84.71;100849.14;87593;1284;95360;-67
2022/01/10 08:49:11;;;;;;;56.00;27.20;;;;;;;-1.26;84.77;100855.59;87576;1284;77174;-59
2022/01/10 08:51:20;;;;;;;48.40;25.90;;;;;;;-1.29;84.60;100855.98;87606;1284;83292;-58
2022/01/10 08:53:26;;;;;;;54.80;26.90;;;;;;;-1.27;84.46;100857.79;87598;1284;98229;-61
2022/01/10 08:55:32;;;;;;;47.90;25.50;;;;;;;-1.35;84.43;100857.76;87613;1284;89503;-69
2022/01/10 08:57:39;;;;;;;49.80;26.00;;;;;;;-1.37;84.50;100858.63;87584;1284;94067;-67
2022/01/10 08:59:45;;;;;;;53.70;26.30;;;;;;;-1.30;84.35;100861.91;87589;1284;79446;-59
2022/01/10 09:01:51;;;;;;;51.80;24.50;;;;;;;-1.26;84.24;100867.05;87566;1284;83441;-59
2022/01/10 09:03:57;;;;;;;50.60;24.30;;;;;;;-1.22;84.34;100872.63;87577;1284;99542;-67
2022/01/10 09:06:11;;;;;;;54.20;26.00;;;;;;;-1.17;84.28;100871.92;87594;1284;88008;-69
2022/01/10 09:08:20;;;;;;;52.70;24.70;;;;;;;-1.02;84.12;100876.72;87577;1284;94348;-60
2022/01/10 09:10:30;;;;;;;49.60;23.80;;;;;;;-0.88;84.19;100880.73;87579;1284;79064;-68
2022/01/10 09:12:39;;;;;;;49.70;23.70;;;;;;;-0.79;84.07;100883.08;87512;1285;83116;-68
2022/01/10 09:14:45;;;;;;;46.00;23.10;;;;;;;-0.70;83.89;100889.36;87487;1285;99600;-59
2022/01/10 09:16:55;;;;;;;49.20;24.10;;;;;;;-0.68;83.88;100892.76;87596;1284;87415;-60
2022/01/10 09:19:02;;;;;;;46.70;23.20;;;;;;;-0.74;83.56;100893.31;87222;1287;95070;-60
2022/01/10 09:21:12;;;;;;;47.20;23.50;;;;;;;-0.77;83.36;100898.19;87618;1284;79868;-59
2022/01/10 09:23:21;;;;;;;55.80;24.50;;;;;;;-0.81;83.34;100899.52;87606;1284;80651;-61
2022/01/10 09:25:27;;;;;;;47.80;23.20;;;;;;;-0.76;83.45;100898.24;87605;1284;100018;-65
2022/01/10 09:27:34;;;;;;;46.00;23.80;;;;;;;-0.67;83.33;100900.27;87600;1284;89493;-69
2022/01/10 09:29:40;;;;;;;48.60;25.20;;;;;;;-0.68;83.30;100905.28;87602;1284;94304;-60
2022/01/10 09:31:46;;;;;;;49.60;23.30;;;;;;;-0.61;83.17;100900.06;87575;1284;79657;-60
2022/01/10 09:34:02;;;;;;;49.10;25.50;;;;;;;-0.42;83.17;100906.02;87639;1284;81494;-60
2022/01/10 09:36:13;;;;;;;50.30;25.30;;;;;;;-0.32;82.78;100902.23;87612;1284;100120;-60
2022/01/10 09:38:22;;;;;;;50.30;23.00;;;;;;;-0.24;82.77;100902.06;87576;1284;88772;-62
2022/01/10 09:40:31;;;;;;;52.00;25.10;;;;;;;-0.25;82.38;100901.44;87603;1284;95929;-67
2022/01/10 09:42:38;;;;;;;47.10;23.80;;;;;;;0.06;82.46;100903.60;87610;1284;79093;-71
2022/01/10 09:44:45;;;;;;;44.60;22.70;;;;;;;0.32;82.19;100909.13;87361;1287;79510;-66
2022/01/10 09:46:54;;;;;;;47.70;24.30;;;;;;;0.59;81.94;100910.98;87579;1284;98850;-66
2022/01/10 09:49:02;;;;;;;50.80;26.20;;;;;;;0.67;81.60;100912.77;87597;1284;88910;-58